Time;durP1;ratioP1;P1;durP2;ratioP2;P2;SDS_P1;SDS_P2;PMS_P1;PMS_P2;Temp;Humidity;BMP_temperature;BMP_pressure;BME280_temperature;BME280_humidity;BME280_pressure;Samples;Min_cycle;Max_cycle;Signal;HPM_P1;HPM_P2
2022/03/19 00:00:44;;;;;;;;;;;;;;;0.60;53.84;102128.84;5069979;28;19973;-86
2022/03/19 00:03:10;;;;;;;;;;;;;;;0.80;53.67;102122.31;5067818;28;19963;-85
2022/03/19 00:05:36;;;;;;;;;;;;;;;0.81;53.82;102120.63;5075845;28;19974;-87
2022/03/19 00:08:01;;;;;;;;;;;;;;;0.66;54.83;102121.44;5075531;28;19994;-86
2022/03/19 00:10:27;;;;;;;;;;;;;;;0.76;53.24;102122.03;5071417;28;19927;-85
2022/03/19 00:12:52;;;;;;;;;;;;;;;0.78;53.29;102117.84;5083866;28;20294;-85
2022/03/19 00:15:18;;;;;;;;;;;;;;;0.82;53.34;102120.72;5086441;28;19916;-85
2022/03/19 00:17:43;;;;;;;;;;;;;;;0.84;53.28;102118.22;5087801;28;20414;-85
2022/03/19 00:20:09;;;;;;;;;;;;;;;0.70;53.92;102117.34;5067415;28;19931;-85
2022/03/19 00:22:34;;;;;;;;;;;;;;;0.85;53.59;102120.94;5067337;28;19920;-84
2022/03/19 00:25:00;;;;;;;;;;;;;;;0.39;54.21;102124.84;5081178;28;19924;-84
2022/03/19 00:27:26;;;;;;;;;;;;;;;0.34;54.36;102119.34;5079986;28;19925;-84
2022/03/19 00:29:52;;;;;;;;;;;;;;;0.54;53.78;102118.06;5099724;28;20292;-83
2022/03/19 00:32:17;;;;;;;;;;;;;;;0.46;53.97;102114.97;5070804;28;19920;-83
2022/03/19 00:34:42;;;;;;;;;;;;;;;0.50;53.45;102119.56;5066848;28;19929;-84
2022/03/19 00:37:08;;;;;;;;;;;;;;;0.67;53.30;102120.66;5067529;28;19959;-84
2022/03/19 00:39:33;;;;;;;;;;;;;;;0.86;53.16;102119.22;5066706;28;19923;-84
2022/03/19 00:41:58;;;;;;;;;;;;;;;0.67;53.05;102120.66;5083664;28;19924;-84
2022/03/19 00:44:24;;;;;;;;;;;;;;;0.59;53.34;102116.66;5087033;28;19919;-84
2022/03/19 00:46:49;;;;;;;;;;;;;;;0.68;52.99;102126.72;5083484;28;20383;-84
2022/03/19 00:49:15;;;;;;;;;;;;;;;0.89;52.27;102111.63;5067454;28;20394;-84
2022/03/19 00:51:40;;;;;;;;;;;;;;;0.84;52.53;102113.03;5079992;28;19976;-84
2022/03/19 00:54:06;;;;;;;;;;;;;;;0.86;52.42;102107.13;5074475;28;19998;-87
2022/03/19 00:56:31;;;;;;;;;;;;;;;1.05;52.54;102113.47;5097854;28;19963;-87
2022/03/19 00:58:57;;;;;;;;;;;;;;;1.18;52.43;102117.75;5072991;28;19931;-87
2022/03/19 01:01:23;;;;;;;;;;;;;;;1.32;52.63;102116.88;5089248;28;19932;-87
2022/03/19 01:03:48;;;;;;;;;;;;;;;1.27;52.20;102123.50;5067303;28;19969;-87
2022/03/19 01:06:13;;;;;;;;;;;;;;;1.20;52.45;102114.41;5066691;28;20735;-85
2022/03/19 01:08:40;;;;;;;;;;;;;;;1.23;52.71;102109.41;5085286;28;19924;-86
2022/03/19 01:11:05;;;;;;;;;;;;;;;1.11;54.13;102107.75;5077609;28;19924;-86
2022/03/19 01:13:31;;;;;;;;;;;;;;;1.19;53.45;102102.25;5085484;28;19924;-86
2022/03/19 01:15:57;;;;;;;;;;;;;;;1.07;54.15;102109.28;5101305;28;19920;-86
2022/03/19 01:18:22;;;;;;;;;;;;;;;1.09;54.29;102107.66;5069749;28;19924;-87
2022/03/19 01:20:48;;;;;;;;;;;;;;;1.05;54.61;102103.06;5066333;28;19924;-85
2022/03/19 01:23:13;;;;;;;;;;;;;;;1.07;54.47;102104.09;5068908;28;19924;-85
2022/03/19 01:25:39;;;;;;;;;;;;;;;1.13;54.05;102106.13;5086730;28;20404;-86
2022/03/19 01:28:04;;;;;;;;;;;;;;;1.07;53.10;102104.09;5083583;28;19930;-85
2022/03/19 01:30:29;;;;;;;;;;;;;;;1.17;52.17;102105.53;5076976;28;19924;-85
2022/03/19 01:32:55;;;;;;;;;;;;;;;1.09;52.23;102106.78;5077316;28;19975;-85
2022/03/19 01:35:20;;;;;;;;;;;;;;;1.17;52.50;102113.34;5083950;28;20008;-85
2022/03/19 01:37:46;;;;;;;;;;;;;;;0.95;53.37;102105.91;5064676;28;20093;-86
2022/03/19 01:40:12;;;;;;;;;;;;;;;1.19;53.19;102102.25;5072288;28;19951;-87
2022/03/19 01:42:40;;;;;;;;;;;;;;;1.03;54.05;102108.16;5086526;28;19942;-84
2022/03/19 01:45:09;;;;;;;;;;;;;;;1.01;54.98;102103.69;5087467;28;20037;-85
2022/03/19 01:47:34;;;;;;;;;;;;;;;0.92;55.58;102093.63;5067140;28;19920;-84
2022/03/19 01:50:00;;;;;;;;;;;;;;;0.94;55.54;102091.13;5081047;28;19924;-85
2022/03/19 01:52:31;;;;;;;;;;;;;;;1.05;55.25;102087.47;5086633;28;19923;-85
2022/03/19 01:54:58;;;;;;;;;;;;;;;0.95;55.30;102103.31;5069079;28;19921;-85
2022/03/19 01:57:24;;;;;;;;;;;;;;;0.92;54.74;102104.00;5071356;28;19963;-86
2022/03/19 01:59:50;;;;;;;;;;;;;;;0.78;54.82;102100.53;5088973;28;19920;-85
2022/03/19 02:02:16;;;;;;;;;;;;;;;0.85;54.42;102101.81;5082643;28;19931;-85
2022/03/19 02:04:41;;;;;;;;;;;;;;;0.88;54.29;102102.00;5071791;28;19925;-85
2022/03/19 02:07:07;;;;;;;;;;;;;;;0.78;54.53;102097.94;5071304;28;19930;-86
2022/03/19 02:09:33;;;;;;;;;;;;;;;0.82;54.88;102101.63;5076596;28;20031;-85
2022/03/19 02:11:58;;;;;;;;;;;;;;;0.83;54.60;102106.91;5070896;28;19923;-85
2022/03/19 02:14:24;;;;;;;;;;;;;;;0.85;54.41;102100.13;5071233;28;20441;-85
2022/03/19 02:16:50;;;;;;;;;;;;;;;0.72;55.19;102100.16;5070868;28;19977;-85
2022/03/19 02:19:16;;;;;;;;;;;;;;;0.67;55.71;102104.16;5071655;28;19955;-86
2022/03/19 02:21:46;;;;;;;;;;;;;;;0.58;55.57;102098.38;5070786;28;19928;-85
2022/03/19 02:26:56;;;;;;;;;;;;;;;0.66;55.21;102103.25;5074979;28;19931;-85
2022/03/19 02:29:21;;;;;;;;;;;;;;;0.71;55.39;102109.66;5088229;28;20740;-85
2022/03/19 02:31:48;;;;;;;;;;;;;;;0.78;56.01;102105.75;5089693;28;19927;-85
2022/03/19 02:34:13;;;;;;;;;;;;;;;0.85;54.96;102105.34;5090666;28;19916;-85
2022/03/19 02:36:42;;;;;;;;;;;;;;;0.85;54.80;102107.94;5090096;28;19920;-85
2022/03/19 02:39:08;;;;;;;;;;;;;;;0.80;54.57;102098.03;5084012;28;19916;-85
2022/03/19 02:41:34;;;;;;;;;;;;;;;0.79;55.05;102091.03;5078657;28;19924;-85
2022/03/19 02:43:59;;;;;;;;;;;;;;;0.81;55.48;102092.06;5089351;28;20291;-85
2022/03/19 02:46:38;;;;;;;;;;;;;;;0.74;56.11;102098.53;5085628;28;19920;-85
2022/03/19 02:49:03;;;;;;;;;;;;;;;0.77;56.60;102090.94;5072907;28;20389;-86
2022/03/19 02:51:29;;;;;;;;;;;;;;;0.70;57.64;102094.88;5090059;28;19927;-86
2022/03/19 02:53:54;;;;;;;;;;;;;;;0.78;56.78;102094.47;5090260;28;19920;-85
2022/03/19 02:56:19;;;;;;;;;;;;;;;0.78;56.45;102095.34;5090332;28;19920;-86
2022/03/19 02:58:45;;;;;;;;;;;;;;;0.58;56.64;102099.28;5073119;28;19927;-85
2022/03/19 03:01:10;;;;;;;;;;;;;;;0.57;56.93;102099.19;5089624;28;20354;-85
2022/03/19 03:03:36;;;;;;;;;;;;;;;0.72;56.34;102102.75;5085134;28;20414;-86
2022/03/19 03:06:01;;;;;;;;;;;;;;;0.69;56.82;102100.84;5071777;28;19927;-85
2022/03/19 03:08:26;;;;;;;;;;;;;;;0.57;56.69;102099.19;5089746;28;19952;-85
2022/03/19 03:10:52;;;;;;;;;;;;;;;0.65;55.61;102097.97;5089856;28;20058;-85
2022/03/19 03:13:17;;;;;;;;;;;;;;;0.77;55.42;102090.06;5089121;28;20355;-85
2022/03/19 03:15:43;;;;;;;;;;;;;;;0.87;55.20;102095.03;5069673;28;19920;-85
2022/03/19 03:18:08;;;;;;;;;;;;;;;0.61;55.53;102094.28;5069739;28;20614;-85
2022/03/19 03:20:34;;;;;;;;;;;;;;;0.57;55.33;102088.78;5070777;28;19924;-86
2022/03/19 03:22:59;;;;;;;;;;;;;;;0.61;55.90;102098.59;5069628;28;19973;-84
2022/03/19 03:25:24;;;;;;;;;;;;;;;0.68;56.35;102095.56;5087084;28;20006;-85
2022/03/19 03:27:51;;;;;;;;;;;;;;;0.54;56.64;102097.28;5069692;28;20035;-86
2022/03/19 03:30:18;;;;;;;;;;;;;;;0.55;56.00;102087.81;5079414;28;19917;-85
2022/03/19 03:32:43;;;;;;;;;;;;;;;0.64;55.75;102101.38;5089770;28;19920;-86
2022/03/19 03:35:09;;;;;;;;;;;;;;;0.64;55.29;102096.19;5104958;28;20309;-87
2022/03/19 03:37:34;;;;;;;;;;;;;;;0.62;55.82;102096.09;5089274;28;19927;-87
2022/03/19 03:39:59;;;;;;;;;;;;;;;0.70;55.85;102096.56;5080772;28;19928;-86
2022/03/19 03:42:25;;;;;;;;;;;;;;;0.79;56.19;102098.84;5084227;28;19922;-86
2022/03/19 03:44:54;;;;;;;;;;;;;;;0.76;56.51;102103.84;5089196;28;19920;-87
2022/03/19 03:47:19;;;;;;;;;;;;;;;0.80;56.78;102096.31;5069238;28;20460;-89
2022/03/19 03:49:44;;;;;;;;;;;;;;;0.88;56.16;102100.34;5073241;28;20011;-86
2022/03/19 03:52:10;;;;;;;;;;;;;;;0.79;56.38;102097.16;5089881;28;19927;-87
2022/03/19 03:54:35;;;;;;;;;;;;;;;0.80;56.49;102106.72;5077957;28;20295;-86
2022/03/19 03:57:00;;;;;;;;;;;;;;;0.67;56.95;102098.97;5071380;28;20005;-87
2022/03/19 03:59:26;;;;;;;;;;;;;;;0.55;57.05;102101.69;5084916;28;19927;-87
2022/03/19 04:01:51;;;;;;;;;;;;;;;0.72;56.88;102102.75;5087673;28;20587;-87
2022/03/19 04:04:16;;;;;;;;;;;;;;;0.75;56.88;102102.94;5087848;28;19916;-86
2022/03/19 04:06:42;;;;;;;;;;;;;;;0.82;56.52;102102.53;5075140;28;20070;-86
2022/03/19 04:09:07;;;;;;;;;;;;;;;0.88;56.73;102104.59;5081654;28;20363;-86
2022/03/19 04:11:32;;;;;;;;;;;;;;;0.90;56.44;102103.03;5087835;28;19912;-86
2022/03/19 04:13:59;;;;;;;;;;;;;;;0.91;56.16;102106.50;5088210;28;19928;-86
2022/03/19 04:16:25;;;;;;;;;;;;;;;0.87;56.21;102111.53;5087989;28;20420;-87
2022/03/19 04:18:50;;;;;;;;;;;;;;;0.93;55.96;102107.50;5076513;28;19924;-86
2022/03/19 04:21:15;;;;;;;;;;;;;;;0.91;55.75;102104.81;5070271;28;19990;-86
2022/03/19 04:23:41;;;;;;;;;;;;;;;0.88;55.88;102108.13;5121752;27;19934;-86
2022/03/19 04:26:06;;;;;;;;;;;;;;;0.96;56.16;102103.41;5087029;28;19924;-85
2022/03/19 04:28:31;;;;;;;;;;;;;;;0.91;56.80;102109.13;5075751;28;19968;-85
2022/03/19 04:30:57;;;;;;;;;;;;;;;0.97;56.65;102112.09;5078866;28;19930;-85
2022/03/19 04:33:22;;;;;;;;;;;;;;;0.93;55.67;102105.81;5068824;28;19925;-85
2022/03/19 04:38:31;;;;;;;;;;;;;;;0.79;56.85;102104.94;5067925;28;19931;-85
2022/03/19 04:40:58;;;;;;;;;;;;;;;0.86;56.58;102109.72;5069903;28;19920;-85
2022/03/19 04:43:23;;;;;;;;;;;;;;;0.83;56.29;102106.03;5088345;28;19924;-86
2022/03/19 04:45:49;;;;;;;;;;;;;;;0.85;56.07;102107.00;5074152;28;19920;-86
2022/03/19 04:48:14;;;;;;;;;;;;;;;1.09;54.81;102107.66;5067815;28;20654;-85
2022/03/19 04:50:40;;;;;;;;;;;;;;;1.16;55.05;102108.94;5079054;28;19920;-85
2022/03/19 04:53:06;;;;;;;;;;;;;;;1.13;55.60;102117.47;5087922;28;19927;-84
2022/03/19 04:55:32;;;;;;;;;;;;;;;1.19;55.44;102112.63;5083873;28;19924;-85
2022/03/19 04:57:57;;;;;;;;;;;;;;;1.12;55.91;102112.16;5085820;28;19924;-85
2022/03/19 05:00:23;;;;;;;;;;;;;;;1.18;55.82;102118.63;5086034;28;19966;-85
2022/03/19 05:02:49;;;;;;;;;;;;;;;0.95;57.30;102117.19;5086972;28;20411;-84
2022/03/19 05:05:14;;;;;;;;;;;;;;;1.18;55.96;102112.53;5086903;28;20432;-92
2022/03/19 05:07:39;;;;;;;;;;;;;;;0.82;55.39;102122.41;5086708;28;19932;-88
2022/03/19 05:12:50;;;;;;;;;;;;;;;1.13;54.47;102117.47;5079097;28;19993;-86
2022/03/19 05:15:16;;;;;;;;;;;;;;;0.95;55.15;102106.81;5068007;28;19963;-91
2022/03/19 05:17:44;;;;;;;;;;;;;;;0.94;56.57;102112.78;5080632;28;20011;-93
2022/03/19 05:20:13;;;;;;;;;;;;;;;1.04;54.89;102117.78;5088715;28;20355;-91
2022/03/19 05:22:38;;;;;;;;;;;;;;;0.64;54.35;102123.06;5088175;28;19920;-88
2022/03/19 05:25:04;;;;;;;;;;;;;;;0.84;54.60;102115.63;5070685;28;20036;-90
2022/03/19 05:27:29;;;;;;;;;;;;;;;0.96;54.12;102107.69;5079127;28;19920;-94
2022/03/19 05:29:55;;;;;;;;;;;;;;;1.31;53.77;102109.88;5088938;28;20011;-90
2022/03/19 05:32:21;;;;;;;;;;;;;;;1.11;52.93;102120.75;5075538;28;19989;-95
2022/03/19 05:34:47;;;;;;;;;;;;;;;1.23;53.40;102113.72;5078778;28;19920;-96
2022/03/19 05:37:16;;;;;;;;;;;;;;;1.14;52.75;102116.63;5078929;28;19935;-92
2022/03/19 05:39:42;;;;;;;;;;;;;;;0.99;52.90;102120.88;5079283;28;19924;-94
2022/03/19 05:42:09;;;;;;;;;;;;;;;1.24;53.05;102113.81;5085250;28;19920;-94
2022/03/19 05:44:35;;;;;;;;;;;;;;;1.32;51.82;102123.78;5085217;28;19926;-93
2022/03/19 05:47:00;;;;;;;;;;;;;;;1.41;50.37;102114.84;5081690;28;19924;-92
2022/03/19 05:49:27;;;;;;;;;;;;;;;1.49;51.62;102111.81;5076623;28;19924;-92
2022/03/19 05:51:52;;;;;;;;;;;;;;;1.56;49.10;102108.75;5086222;28;20011;-84
2022/03/19 05:54:18;;;;;;;;;;;;;;;1.93;49.73;102117.06;5085708;28;20461;-85
2022/03/19 05:56:44;;;;;;;;;;;;;;;2.17;49.98;102114.09;5066931;28;20665;-85
2022/03/19 05:59:09;;;;;;;;;;;;;;;2.14;50.34;102108.72;5077853;28;19977;-83
2022/03/19 06:01:35;;;;;;;;;;;;;;;1.81;48.49;102107.63;5073801;28;19925;-84
2022/03/19 06:04:00;;;;;;;;;;;;;;;2.08;49.06;102110.97;5064938;28;19920;-84
2022/03/19 06:06:26;;;;;;;;;;;;;;;2.11;47.68;102113.75;5067009;28;20457;-85
2022/03/19 06:08:52;;;;;;;;;;;;;;;2.37;47.20;102112.63;5075622;28;19927;-85
2022/03/19 06:11:17;;;;;;;;;;;;;;;2.55;45.88;102109.25;5082317;28;19924;-83
2022/03/19 06:13:43;;;;;;;;;;;;;;;2.64;46.52;102109.78;5085181;28;20398;-85
2022/03/19 06:16:08;;;;;;;;;;;;;;;2.31;46.29;102104.47;5086641;28;19931;-84
2022/03/19 06:18:34;;;;;;;;;;;;;;;2.80;46.70;102109.84;5078587;28;20722;-84
2022/03/19 06:20:59;;;;;;;;;;;;;;;3.12;46.24;102102.88;5066618;28;19920;-85
2022/03/19 06:23:24;;;;;;;;;;;;;;;3.48;46.11;102110.84;5067370;28;19924;-85
2022/03/19 06:25:50;;;;;;;;;;;;;;;3.45;44.02;102113.31;5085088;28;20390;-82
2022/03/19 06:28:16;;;;;;;;;;;;;;;3.78;44.42;102110.63;5072576;28;20011;-83
2022/03/19 06:30:41;;;;;;;;;;;;;;;4.19;44.53;102109.22;5066821;28;19925;-87
2022/03/19 06:33:06;;;;;;;;;;;;;;;4.50;44.51;102109.84;5084109;28;19920;-86
2022/03/19 06:38:16;;;;;;;;;;;;;;;4.65;46.07;102110.59;5086699;28;20427;-88
2022/03/19 06:40:41;;;;;;;;;;;;;;;4.80;43.97;102108.69;5103878;28;19920;-85
2022/03/19 06:43:07;;;;;;;;;;;;;;;4.68;42.63;102115.03;5090799;28;19916;-86
2022/03/19 06:45:32;;;;;;;;;;;;;;;4.97;43.64;102109.50;5087024;28;19974;-86
2022/03/19 06:47:57;;;;;;;;;;;;;;;5.45;41.06;102110.72;5088700;28;19924;-85
2022/03/19 06:50:23;;;;;;;;;;;;;;;5.83;39.28;102106.28;5088907;28;19931;-85
2022/03/19 06:52:48;;;;;;;;;;;;;;;6.17;40.20;102107.75;5093663;28;19927;-84
2022/03/19 06:55:13;;;;;;;;;;;;;;;6.12;38.91;102098.78;5091210;28;19924;-86
2022/03/19 06:57:39;;;;;;;;;;;;;;;6.47;38.58;102097.59;5108396;28;19981;-86
2022/03/19 07:00:04;;;;;;;;;;;;;;;6.20;39.16;102094.75;5109215;28;19922;-85
2022/03/19 07:02:30;;;;;;;;;;;;;;;6.14;37.44;102098.00;5093414;27;19923;-85
2022/03/19 07:04:55;;;;;;;;;;;;;;;5.83;39.16;102091.44;5103197;28;19983;-86
2022/03/19 07:07:20;;;;;;;;;;;;;;;6.23;37.87;102098.41;5105209;28;20502;-85
2022/03/19 07:09:46;;;;;;;;;;;;;;;6.43;37.56;102093.97;5090177;28;20014;-87
2022/03/19 07:12:11;;;;;;;;;;;;;;;6.54;39.82;102090.88;5090429;28;20069;-83
2022/03/19 07:14:37;;;;;;;;;;;;;;;6.84;38.87;102092.91;5090392;28;19958;-85
2022/03/19 07:17:03;;;;;;;;;;;;;;;7.51;35.36;102092.78;5089946;28;19920;-83
2022/03/19 07:19:28;;;;;;;;;;;;;;;7.75;34.16;102090.97;5089478;28;19920;-85
2022/03/19 07:21:53;;;;;;;;;;;;;;;7.96;32.53;102093.47;5090504;28;19959;-84
2022/03/19 07:24:19;;;;;;;;;;;;;;;7.97;32.35;102079.47;5089550;28;19920;-85
2022/03/19 07:26:44;;;;;;;;;;;;;;;7.60;30.89;102086.06;5082354;28;19920;-90
2022/03/19 07:29:10;;;;;;;;;;;;;;;7.54;31.63;102084.13;5068654;28;19920;-86
2022/03/19 07:31:36;;;;;;;;;;;;;;;7.56;32.96;102079.81;5069206;28;19999;-86
2022/03/19 07:34:01;;;;;;;;;;;;;;;7.35;35.45;102078.22;5073866;28;19934;-83
2022/03/19 07:36:26;;;;;;;;;;;;;;;6.66;35.04;102082.59;5090214;28;19924;-86
2022/03/19 07:38:52;;;;;;;;;;;;;;;6.34;35.40;102090.97;5109321;28;20010;-84
2022/03/19 07:44:03;;;;;;;;;;;;;;;6.54;31.99;102088.25;5109500;28;20420;-87
2022/03/19 07:46:28;;;;;;;;;;;;;;;6.79;33.30;102092.72;5108425;27;20385;-83
2022/03/19 07:48:54;;;;;;;;;;;;;;;7.07;32.07;102091.16;5106475;28;19922;-84
2022/03/19 07:51:19;;;;;;;;;;;;;;;7.20;32.19;102092.50;5090347;28;19919;-84
2022/03/19 07:53:45;;;;;;;;;;;;;;;6.32;32.45;102095.28;5092403;28;20378;-85
2022/03/19 07:56:11;;;;;;;;;;;;;;;6.07;33.73;102098.56;5087439;28;20445;-84
2022/03/19 07:58:36;;;;;;;;;;;;;;;6.04;33.55;102098.44;5089001;28;19924;-86
2022/03/19 08:01:01;;;;;;;;;;;;;;;5.84;33.36;102093.25;5089435;28;19920;-85
2022/03/19 08:03:27;;;;;;;;;;;;;;;5.82;35.40;102092.28;5097448;28;20402;-88
2022/03/19 08:05:52;;;;;;;;;;;;;;;6.08;33.64;102093.41;5085369;28;20306;-88
2022/03/19 08:08:17;;;;;;;;;;;;;;;6.04;34.27;102087.97;5089105;28;19920;-84
2022/03/19 08:10:43;;;;;;;;;;;;;;;6.06;34.85;102091.56;5093279;28;19924;-85
2022/03/19 08:13:09;;;;;;;;;;;;;;;6.18;34.30;102092.06;5097678;28;19951;-84
2022/03/19 08:15:37;;;;;;;;;;;;;;;6.42;33.12;102086.91;5088604;28;19926;-84
2022/03/19 08:18:03;;;;;;;;;;;;;;;5.91;33.40;102090.03;5089168;28;19920;-85
2022/03/19 08:20:28;;;;;;;;;;;;;;;6.24;33.73;102089.72;5088558;28;19927;-85
2022/03/19 08:22:54;;;;;;;;;;;;;;;6.65;34.36;102086.06;5089180;28;19992;-83
2022/03/19 08:25:19;;;;;;;;;;;;;;;6.37;33.07;102079.72;5087789;28;19924;-82
2022/03/19 08:27:45;;;;;;;;;;;;;;;6.30;32.82;102080.28;5087172;28;19970;-82
2022/03/19 08:30:11;;;;;;;;;;;;;;;6.71;34.17;102076.69;5087996;28;19974;-84
2022/03/19 08:32:36;;;;;;;;;;;;;;;6.64;31.91;102074.66;5086707;28;19920;-84
2022/03/19 08:35:02;;;;;;;;;;;;;;;6.70;32.89;102076.63;5087438;28;20342;-84
2022/03/19 08:37:27;;;;;;;;;;;;;;;6.58;33.64;102063.94;5086835;28;20301;-84
2022/03/19 08:42:38;;;;;;;;;;;;;;;7.23;31.96;102069.00;5086809;28;19927;-85
2022/03/19 08:45:03;;;;;;;;;;;;;;;7.23;32.78;102067.28;5087291;28;20361;-83
2022/03/19 08:47:29;;;;;;;;;;;;;;;6.65;32.87;102075.56;5086630;28;20584;-84
2022/03/19 08:49:55;;;;;;;;;;;;;;;6.25;32.39;102078.38;5086997;28;20042;-84
2022/03/19 08:52:20;;;;;;;;;;;;;;;6.51;33.09;102075.03;5088363;28;19924;-85
2022/03/19 08:54:45;;;;;;;;;;;;;;;6.43;34.05;102069.47;5087753;28;19961;-83
2022/03/19 08:57:11;;;;;;;;;;;;;;;6.11;34.02;102082.16;5088418;28;20020;-83
2022/03/19 08:59:37;;;;;;;;;;;;;;;6.51;34.13;102078.53;5087362;28;19924;-83
2022/03/19 09:02:02;;;;;;;;;;;;;;;5.94;34.01;102085.78;5088069;28;19920;-83
2022/03/19 09:04:28;;;;;;;;;;;;;;;6.10;34.73;102077.75;5086441;28;19920;-84
2022/03/19 09:06:53;;;;;;;;;;;;;;;6.20;34.40;102074.69;5087841;28;19926;-83
2022/03/19 09:09:19;;;;;;;;;;;;;;;6.15;33.79;102071.00;5087666;28;20313;-83
2022/03/19 09:11:45;;;;;;;;;;;;;;;6.16;34.50;102079.72;5087613;28;20046;-83
2022/03/19 09:14:11;;;;;;;;;;;;;;;6.56;34.46;102076.97;5085665;28;19924;-84
2022/03/19 09:16:37;;;;;;;;;;;;;;;7.05;34.06;102062.22;5085805;28;19928;-85
2022/03/19 09:19:03;;;;;;;;;;;;;;;6.99;33.67;102070.75;5087770;28;19916;-85
2022/03/19 09:21:29;;;;;;;;;;;;;;;5.82;34.57;102075.66;5086872;28;19960;-83
2022/03/19 09:23:55;;;;;;;;;;;;;;;6.11;33.85;102076.03;5087444;28;19927;-84
2022/03/19 09:26:20;;;;;;;;;;;;;;;5.90;33.68;102082.13;5086699;28;19930;-84
2022/03/19 09:28:48;;;;;;;;;;;;;;;6.26;34.38;102071.44;5085038;28;20364;-84
2022/03/19 09:31:15;;;;;;;;;;;;;;;6.36;33.29;102077.91;5087871;28;19924;-85
2022/03/19 09:33:42;;;;;;;;;;;;;;;6.18;33.30;102080.69;5086240;28;20360;-84
2022/03/19 09:36:07;;;;;;;;;;;;;;;6.28;34.43;102068.00;5087682;28;19942;-84
2022/03/19 09:38:32;;;;;;;;;;;;;;;6.32;35.56;102081.25;5086514;28;19916;-85
2022/03/19 09:40:58;;;;;;;;;;;;;;;6.14;35.71;102079.66;5087167;28;20333;-84
2022/03/19 09:43:24;;;;;;;;;;;;;;;5.85;36.67;102076.69;5085744;28;19950;-83
2022/03/19 09:45:50;;;;;;;;;;;;;;;5.58;38.05;102071.19;5087103;28;20313;-85
2022/03/19 09:48:16;;;;;;;;;;;;;;;5.71;39.74;102067.34;5087206;28;19927;-85
2022/03/19 09:50:41;;;;;;;;;;;;;;;5.89;40.99;102062.91;5087179;28;19920;-84
2022/03/19 09:53:09;;;;;;;;;;;;;;;6.14;38.13;102068.31;5087460;28;19920;-85
2022/03/19 09:55:36;;;;;;;;;;;;;;;5.82;37.66;102066.06;5086764;28;19920;-85
2022/03/19 09:58:02;;;;;;;;;;;;;;;6.06;40.09;102063.63;5087214;28;19927;-86
2022/03/19 10:00:27;;;;;;;;;;;;;;;6.28;39.40;102065.38;5086054;28;19916;-86
2022/03/19 10:03:03;;;;;;;;;;;;;;;5.79;37.96;102067.69;5087165;28;19920;-85
2022/03/19 10:10:57;;;;;;;;;;;;;;;6.14;38.07;102061.31;5087351;28;19927;-85
2022/03/19 10:13:24;;;;;;;;;;;;;;;5.81;37.96;102058.16;5086953;28;19916;-84
2022/03/19 10:15:50;;;;;;;;;;;;;;;6.26;36.30;102047.84;5089076;28;19920;-86
2022/03/19 10:18:15;;;;;;;;;;;;;;;6.81;35.13;102054.31;5091291;28;19916;-85
2022/03/19 10:20:42;;;;;;;;;;;;;;;6.91;38.75;102050.34;5089921;28;20378;-86
2022/03/19 10:23:07;;;;;;;;;;;;;;;6.48;36.71;102052.19;5090944;28;20512;-85
2022/03/19 10:25:32;;;;;;;;;;;;;;;7.06;38.06;102052.63;5090933;28;20023;-85
2022/03/19 10:28:02;;;;;;;;;;;;;;;7.15;35.47;102050.34;5089887;28;20053;-85
2022/03/19 10:30:34;;;;;;;;;;;;;;;6.61;37.43;102045.69;5090944;28;19917;-85
2022/03/19 10:33:00;;;;;;;;;;;;;;;7.10;38.43;102034.41;5091298;28;19920;-85
2022/03/19 10:35:28;;;;;;;;;;;;;;;7.50;37.18;102040.22;5090780;28;19924;-86
2022/03/19 10:37:53;;;;;;;;;;;;;;;7.60;35.10;102041.41;5088657;28;19924;-85
2022/03/19 10:40:20;;;;;;;;;;;;;;;7.50;37.31;102030.59;5090724;28;20295;-86
2022/03/19 10:42:46;;;;;;;;;;;;;;;7.87;35.52;102038.84;5090978;28;19920;-85
2022/03/19 10:45:18;;;;;;;;;;;;;;;7.63;35.70;102026.69;5091298;28;19930;-85
2022/03/19 10:47:47;;;;;;;;;;;;;;;7.71;34.73;102029.56;5090588;28;19943;-85
2022/03/19 10:50:19;;;;;;;;;;;;;;;7.40;33.55;102018.00;5088962;28;20294;-84
2022/03/19 10:52:46;;;;;;;;;;;;;;;7.67;32.52;102019.78;5089798;28;19916;-84
2022/03/19 10:55:11;;;;;;;;;;;;;;;8.07;32.32;102024.63;5089580;28;19924;-85
2022/03/19 10:57:37;;;;;;;;;;;;;;;7.71;31.55;102014.69;5090326;28;19969;-85
2022/03/19 11:00:03;;;;;;;;;;;;;;;7.99;31.67;102010.34;5089921;28;20013;-85
2022/03/19 11:02:30;;;;;;;;;;;;;;;7.84;31.33;102007.22;5090233;28;19927;-85
2022/03/19 11:04:57;;;;;;;;;;;;;;;7.69;32.39;102010.19;5089388;28;19952;-85
2022/03/19 11:07:24;;;;;;;;;;;;;;;7.51;32.54;101994.72;5090263;28;19994;-85
2022/03/19 11:09:53;;;;;;;;;;;;;;;7.69;32.42;101991.81;5090251;28;19996;-86
2022/03/19 11:12:20;;;;;;;;;;;;;;;7.41;34.23;101982.13;5089796;28;19924;-85
2022/03/19 11:14:45;;;;;;;;;;;;;;;7.13;33.14;101997.78;5090096;28;19927;-85
2022/03/19 11:17:32;;;;;;;;;;;;;;;7.12;32.68;102000.34;5088911;28;19916;-84
2022/03/19 11:20:00;;;;;;;;;;;;;;;7.44;32.17;101988.34;5090263;28;19962;-85
2022/03/19 11:22:26;;;;;;;;;;;;;;;7.45;31.87;101991.91;5089414;28;19968;-85
2022/03/19 11:25:07;;;;;;;;;;;;;;;6.81;34.05;101988.72;5088570;28;19931;-85
2022/03/19 11:27:35;;;;;;;;;;;;;;;7.17;33.96;101988.31;5087071;28;19924;-85
2022/03/19 11:30:00;;;;;;;;;;;;;;;7.08;32.89;101986.22;5090012;28;19920;-84
2022/03/19 11:32:25;;;;;;;;;;;;;;;6.95;33.24;101978.75;5090107;28;20413;-84
2022/03/19 11:34:56;;;;;;;;;;;;;;;6.76;34.33;101977.19;5089905;28;20444;-84
2022/03/19 11:37:22;;;;;;;;;;;;;;;6.97;34.64;101970.09;5089768;28;20295;-84
2022/03/19 11:40:02;;;;;;;;;;;;;;;7.23;33.40;101979.72;5087317;28;19920;-85
2022/03/19 11:42:32;;;;;;;;;;;;;;;7.29;32.48;101977.31;5089812;28;20398;-84
2022/03/19 11:45:07;;;;;;;;;;;;;;;7.58;32.50;101969.56;5088953;28;19916;-85
2022/03/19 11:47:34;;;;;;;;;;;;;;;7.47;33.17;101971.81;5086892;28;20754;-85
2022/03/19 11:50:02;;;;;;;;;;;;;;;7.38;32.41;101966.25;5088351;28;19955;-88
2022/03/19 11:52:30;;;;;;;;;;;;;;;7.25;31.51;101967.56;5088095;28;19944;-91
2022/03/19 11:55:08;;;;;;;;;;;;;;;7.20;32.09;101963.88;5084081;28;19924;-85
2022/03/19 11:57:45;;;;;;;;;;;;;;;6.71;33.21;101966.53;5082940;28;20475;-85
2022/03/19 12:00:12;;;;;;;;;;;;;;;6.78;33.59;101965.94;5087944;28;19926;-89
2022/03/19 12:02:56;;;;;;;;;;;;;;;6.76;36.46;101959.72;5087192;28;19999;-86
2022/03/19 12:05:26;;;;;;;;;;;;;;;7.46;34.20;101960.44;5071094;28;20483;-87
2022/03/19 12:07:54;;;;;;;;;;;;;;;7.03;34.22;101950.16;5099530;28;19971;-89
2022/03/19 12:10:20;;;;;;;;;;;;;;;7.29;33.36;101954.59;5069059;28;19921;-89
2022/03/19 12:12:47;;;;;;;;;;;;;;;7.80;35.18;101950.13;5083737;28;20682;-91
2022/03/19 12:15:31;;;;;;;;;;;;;;;7.90;34.75;101949.59;5090628;28;19973;-91
2022/03/19 12:18:15;;;;;;;;;;;;;;;7.82;32.61;101949.34;5087910;28;20027;-88
2022/03/19 12:20:43;;;;;;;;;;;;;;;6.98;31.99;101943.03;5087390;28;19980;-94
2022/03/19 12:23:16;;;;;;;;;;;;;;;7.07;32.69;101950.31;5089924;28;20001;-92
2022/03/19 12:25:54;;;;;;;;;;;;;;;7.38;30.99;101945.25;5090347;28;19961;-92
2022/03/19 12:28:19;;;;;;;;;;;;;;;7.72;31.30;101939.38;5089490;28;19962;-91
2022/03/19 12:30:45;;;;;;;;;;;;;;;8.04;30.03;101929.00;5090228;28;19962;-89
2022/03/19 12:33:10;;;;;;;;;;;;;;;7.61;31.38;101932.88;5089403;28;19927;-93
2022/03/19 12:35:42;;;;;;;;;;;;;;;7.23;32.31;101933.38;5107070;28;20011;-89
2022/03/19 12:38:09;;;;;;;;;;;;;;;6.64;33.07;101933.03;5099228;28;19924;-93
2022/03/19 12:43:20;;;;;;;;;;;;;;;6.60;33.80;101918.03;5091668;28;19973;-92
2022/03/19 12:45:49;;;;;;;;;;;;;;;6.26;34.33;101922.91;5090923;28;19924;-91
2022/03/19 12:48:16;;;;;;;;;;;;;;;6.45;34.48;101914.00;5104919;28;19924;-91
2022/03/19 12:50:52;;;;;;;;;;;;;;;6.72;34.31;101915.84;5088283;28;20560;-92
2022/03/19 12:53:37;;;;;;;;;;;;;;;6.55;33.68;101919.56;5089405;28;19924;-89
2022/03/19 12:56:17;;;;;;;;;;;;;;;6.74;32.37;101908.94;5088689;28;19971;-87
2022/03/19 12:58:44;;;;;;;;;;;;;;;7.17;31.68;101914.81;5094292;28;20034;-93
2022/03/19 13:01:11;;;;;;;;;;;;;;;6.84;31.74;101901.38;5096172;28;19946;-91
2022/03/19 13:03:36;;;;;;;;;;;;;;;6.82;30.92;101909.19;5089347;28;19916;-92
2022/03/19 13:06:02;;;;;;;;;;;;;;;7.30;29.45;101908.22;5090278;28;19927;-92
2022/03/19 13:08:30;;;;;;;;;;;;;;;7.19;30.09;101909.59;5101392;28;19919;-89